Time;durP1;ratioP1;P1;durP2;ratioP2;P2;SDS_P1;SDS_P2;PMS_P1;PMS_P2;Temp;Humidity;BMP_temperature;BMP_pressure;BME280_temperature;BME280_humidity;BME280_pressure;Samples;Min_cycle;Max_cycle;Signal;HPM_P1;HPM_P2
2022/01/24 00:01:45;;;;;;;0.40;0.40;;;-0.10;97.00;;;;;;5055063;28;20170;-67
2022/01/24 00:04:11;;;;;;;0.40;0.40;;;-0.10;97.20;;;;;;5053841;28;20200;-67
2022/01/24 00:06:38;;;;;;;0.40;0.40;;;-0.10;97.40;;;;;;5054924;28;20201;-67
2022/01/24 00:09:05;;;;;;;0.40;0.40;;;-0.10;97.10;;;;;;5054916;28;20862;-67
2022/01/24 00:17:17;;;;;;;0.30;0.30;;;-0.10;97.20;;;;;;5054828;28;20177;-67
2022/01/24 00:27:57;;;;;;;0.40;0.40;;;-0.20;97.50;;;;;;5054635;28;20705;-67
2022/01/24 00:30:22;;;;;;;0.50;0.50;;;-0.30;97.70;;;;;;5053193;28;20170;-67
2022/01/24 00:32:48;;;;;;;0.30;0.30;;;-0.30;98.10;;;;;;5054490;28;20913;-67
2022/01/24 00:35:14;;;;;;;0.40;0.40;;;-0.30;98.30;;;;;;5054195;28;20393;-67
2022/01/24 00:37:40;;;;;;;0.40;0.40;;;-0.20;98.30;;;;;;5054267;28;20166;-67
2022/01/24 00:40:06;;;;;;;0.37;0.37;;;-0.20;98.40;;;;;;5054304;28;20961;-67
2022/01/24 00:55:48;;;;;;;0.40;0.40;;;0.10;98.10;;;;;;5054172;28;20205;-67
2022/01/24 00:58:14;;;;;;;0.40;0.40;;;0.20;98.00;;;;;;5054133;28;20201;-67
2022/01/24 01:00:40;;;;;;;0.30;0.30;;;0.20;97.90;;;;;;5053886;28;20240;-67
2022/01/24 01:03:06;;;;;;;0.40;0.40;;;0.10;97.90;;;;;;5054077;28;20178;-67
2022/01/24 01:18:04;;;;;;;0.30;0.30;;;0.10;97.90;;;;;;5053916;28;20412;-67
2022/01/24 01:19:00;;;;;;;0.30;0.30;;;0.20;96.80;;;;;;5053517;28;20643;-68
2022/01/24 01:21:26;;;;;;;0.40;0.40;;;0.10;97.00;;;;;;5053765;28;20198;-68
2022/01/24 01:23:57;;;;;;;0.30;0.30;;;0.10;97.50;;;;;;5053694;28;20166;-68
2022/01/24 01:26:33;;;;;;;0.30;0.30;;;0.20;97.30;;;;;;5053568;28;20173;-68
2022/01/24 01:29:05;;;;;;;0.50;0.50;;;0.30;97.00;;;;;;5053511;28;20206;-68
2022/01/24 01:31:44;;;;;;;0.30;0.30;;;0.30;96.80;;;;;;5053722;28;20249;-67
2022/01/24 01:37:24;;;;;;;0.38;0.38;;;0.30;96.70;;;;;;5053298;28;20639;-67
2022/01/24 01:40:25;;;;;;;0.40;0.40;;;0.30;96.70;;;;;;5053185;28;20606;-68
2022/01/24 01:56:13;;;;;;;0.40;0.40;;;0.30;96.10;;;;;;5053267;28;20166;-67
2022/01/24 01:58:39;;;;;;;0.40;0.40;;;0.20;95.90;;;;;;5053013;28;20546;-68
2022/01/24 02:01:05;;;;;;;0.40;0.40;;;0.10;95.70;;;;;;5053353;28;20636;-67
2022/01/24 02:03:31;;;;;;;0.40;0.40;;;0.00;95.80;;;;;;5053253;28;20185;-68
2022/01/24 02:05:57;;;;;;;0.40;0.40;;;0.00;95.90;;;;;;5053132;28;20652;-67
2022/01/24 02:08:27;;;;;;;0.40;0.40;;;-0.10;95.80;;;;;;5053169;28;20693;-67
2022/01/24 02:10:52;;;;;;;0.47;0.47;;;-0.20;95.80;;;;;;5053332;28;20177;-67
2022/01/24 02:13:19;;;;;;;0.40;0.40;;;-0.30;95.90;;;;;;5053101;28;20178;-67
2022/01/24 02:16:01;;;;;;;0.40;0.40;;;-0.40;96.10;;;;;;5052875;28;20405;-67
2022/01/24 02:21:13;;;;;;;0.40;0.40;;;-0.40;96.30;;;;;;5052955;28;20163;-67
2022/01/24 02:23:44;;;;;;;0.52;0.52;;;-0.40;96.30;;;;;;5053417;28;20174;-67
2022/01/24 02:26:15;;;;;;;0.50;0.50;;;-0.50;96.40;;;;;;5052951;28;20197;-67
2022/01/24 02:28:50;;;;;;;0.40;0.40;;;-0.50;96.60;;;;;;5052944;28;20280;-67
2022/01/24 02:34:00;;;;;;;0.40;0.40;;;-0.50;96.80;;;;;;5053217;28;20608;-67
2022/01/24 02:36:26;;;;;;;0.40;0.40;;;-0.60;96.70;;;;;;5052816;28;20198;-67
2022/01/24 02:39:11;;;;;;;0.43;0.43;;;-0.70;96.50;;;;;;5052990;28;20194;-67
2022/01/24 02:49:54;;;;;;;0.50;0.50;;;-0.70;96.60;;;;;;5060812;28;20222;-67
2022/01/24 02:52:23;;;;;;;0.60;0.60;;;-0.70;96.60;;;;;;5052715;28;20177;-67
2022/01/24 02:54:49;;;;;;;0.40;0.40;;;-0.70;96.60;;;;;;5052526;28;20574;-67
2022/01/24 02:57:15;;;;;;;0.50;0.50;;;-0.70;96.60;;;;;;5053963;28;20170;-67
2022/01/24 02:59:41;;;;;;;0.40;0.40;;;-0.80;96.30;;;;;;5056108;28;20584;-67
2022/01/24 03:02:07;;;;;;;0.40;0.40;;;-0.90;96.40;;;;;;5056294;28;20158;-68
2022/01/24 03:04:32;;;;;;;0.40;0.40;;;-0.80;96.60;;;;;;5056350;28;20245;-67
2022/01/24 03:06:59;;;;;;;0.40;0.40;;;-0.90;96.70;;;;;;5056012;28;20169;-68
2022/01/24 03:09:24;;;;;;;0.40;0.40;;;-0.90;96.80;;;;;;5056312;28;20193;-67
2022/01/24 03:12:00;;;;;;;0.50;0.50;;;-0.80;96.80;;;;;;5056241;28;20659;-67
2022/01/24 03:14:31;;;;;;;0.50;0.50;;;-0.80;96.80;;;;;;5056201;28;20169;-67
2022/01/24 03:16:57;;;;;;;0.40;0.40;;;-0.80;96.80;;;;;;5055565;28;20220;-67
2022/01/24 03:19:23;;;;;;;0.60;0.60;;;-0.80;96.70;;;;;;5054810;28;20594;-67
2022/01/24 03:21:50;;;;;;;0.50;0.50;;;-0.90;96.70;;;;;;5054525;28;20442;-71
2022/01/24 03:24:15;;;;;;;0.50;0.50;;;-0.80;96.80;;;;;;5055919;28;20640;-67
2022/01/24 03:26:42;;;;;;;0.50;0.50;;;-0.80;96.90;;;;;;5055013;28;20185;-67
2022/01/24 03:29:07;;;;;;;0.40;0.40;;;-0.80;96.90;;;;;;5055165;28;20537;-67
2022/01/24 03:31:35;;;;;;;0.40;0.40;;;-0.80;96.80;;;;;;5055734;28;20225;-66
2022/01/24 03:34:02;;;;;;;0.60;0.60;;;-0.90;96.80;;;;;;5056323;28;20227;-68
2022/01/24 03:36:27;;;;;;;0.40;0.40;;;-0.90;96.90;;;;;;5054189;28;20324;-66
2022/01/24 03:38:53;;;;;;;0.50;0.50;;;-0.90;96.90;;;;;;5054295;28;20660;-66
2022/01/24 03:41:19;;;;;;;0.50;0.50;;;-0.90;96.80;;;;;;5055837;28;20182;-66
2022/01/24 03:43:45;;;;;;;0.52;0.52;;;-0.90;96.90;;;;;;5054388;28;20159;-68
2022/01/24 03:46:36;;;;;;;0.40;0.40;;;-0.90;96.90;;;;;;5054860;28;20179;-67
2022/01/24 03:49:09;;;;;;;0.40;0.40;;;-0.90;96.80;;;;;;5055261;28;20464;-73
2022/01/24 03:51:35;;;;;;;0.40;0.40;;;-0.90;96.70;;;;;;5055408;28;20170;-67
2022/01/24 03:54:01;;;;;;;0.40;0.40;;;-0.90;96.70;;;;;;5053976;28;20163;-67
2022/01/24 03:56:27;;;;;;;0.50;0.50;;;-0.90;96.50;;;;;;5055132;28;20273;-67
2022/01/24 03:58:52;;;;;;;0.60;0.60;;;-1.00;96.60;;;;;;5055031;28;20723;-67
2022/01/24 04:01:18;;;;;;;0.50;0.50;;;-1.00;96.70;;;;;;5055136;28;20162;-67
2022/01/24 04:03:43;;;;;;;0.40;0.40;;;-1.20;97.10;;;;;;5055093;28;20632;-67
2022/01/24 04:06:09;;;;;;;0.57;0.57;;;-1.10;97.30;;;;;;5054847;28;20170;-67
2022/01/24 04:08:35;;;;;;;0.60;0.60;;;-1.10;97.10;;;;;;5053948;28;20202;-67
2022/01/24 04:11:01;;;;;;;0.40;0.40;;;-1.00;97.20;;;;;;5054931;28;20167;-67
2022/01/24 04:13:37;;;;;;;0.40;0.40;;;-1.00;96.80;;;;;;5054839;28;20178;-67
2022/01/24 04:18:45;;;;;;;0.50;0.50;;;-1.10;96.70;;;;;;5054470;28;20213;-67
2022/01/24 04:21:20;;;;;;;0.60;0.60;;;-1.10;96.60;;;;;;5054340;28;20513;-66
2022/01/24 04:23:53;;;;;;;0.47;0.47;;;-1.10;96.60;;;;;;5054801;28;20174;-67
2022/01/24 04:26:19;;;;;;;0.50;0.50;;;-1.10;96.70;;;;;;5053497;28;20265;-67
2022/01/24 04:28:45;;;;;;;0.53;0.53;;;-1.10;96.40;;;;;;5054519;28;20336;-68
2022/01/24 04:31:10;;;;;;;0.60;0.60;;;-1.20;96.10;;;;;;5054631;28;20166;-72
2022/01/24 04:33:36;;;;;;;0.50;0.50;;;-1.20;96.10;;;;;;5054649;28;20598;-70
2022/01/24 04:36:02;;;;;;;0.50;0.50;;;-1.20;96.00;;;;;;5054473;28;20166;-70
2022/01/24 04:38:28;;;;;;;0.60;0.60;;;-1.30;96.10;;;;;;5054547;28;20190;-68
2022/01/24 04:40:58;;;;;;;0.50;0.50;;;-1.40;96.20;;;;;;5054395;28;20189;-67
2022/01/24 04:51:31;;;;;;;0.40;0.40;;;-1.40;96.00;;;;;;5054177;28;20212;-66
2022/01/24 04:56:49;;;;;;;0.50;0.50;;;-1.30;96.40;;;;;;5060485;28;20636;-67
2022/01/24 04:59:14;;;;;;;0.50;0.50;;;-1.30;96.50;;;;;;5053793;28;20300;-68
2022/01/24 05:01:40;;;;;;;0.40;0.40;;;-1.20;96.70;;;;;;5053956;28;20185;-69
2022/01/24 05:04:06;;;;;;;0.60;0.60;;;-1.10;96.80;;;;;;5053948;28;20224;-67
2022/01/24 05:06:31;;;;;;;0.40;0.40;;;-1.10;96.60;;;;;;5053844;28;20178;-70
2022/01/24 05:08:57;;;;;;;0.40;0.40;;;-1.10;96.50;;;;;;5053653;28;20952;-69
2022/01/24 05:11:35;;;;;;;0.70;0.70;;;-1.00;96.50;;;;;;5053865;28;20167;-67
2022/01/24 05:24:39;;;;;;;0.50;0.50;;;-1.10;96.30;;;;;;5053279;28;20170;-67
2022/01/24 05:27:05;;;;;;;0.50;0.50;;;-1.10;96.30;;;;;;5052198;28;20219;-73
2022/01/24 05:29:31;;;;;;;0.40;0.40;;;-1.00;96.20;;;;;;5053365;28;20209;-67
2022/01/24 05:31:57;;;;;;;0.40;0.40;;;-1.00;96.10;;;;;;5053633;28;20170;-68
2022/01/24 05:34:24;;;;;;;0.43;0.43;;;-1.00;96.10;;;;;;5052431;28;20397;-66
2022/01/24 05:36:50;;;;;;;0.40;0.40;;;-1.00;96.10;;;;;;5053463;28;20547;-68
2022/01/24 05:39:16;;;;;;;0.40;0.40;;;-1.00;96.30;;;;;;5053517;28;20209;-68
2022/01/24 05:41:41;;;;;;;0.37;0.37;;;-1.00;96.40;;;;;;5053617;28;20616;-68
2022/01/24 05:44:07;;;;;;;0.40;0.40;;;-0.90;96.30;;;;;;5053855;28;20636;-69
2022/01/24 05:46:33;;;;;;;0.40;0.40;;;-0.90;96.10;;;;;;5053408;28;20163;-69
2022/01/24 05:49:00;;;;;;;0.30;0.30;;;-1.00;95.70;;;;;;5053357;28;20684;-68
2022/01/24 05:51:25;;;;;;;0.45;0.45;;;-1.10;95.60;;;;;;5054010;28;20170;-68
2022/01/24 05:53:51;;;;;;;0.40;0.40;;;-1.20;95.60;;;;;;5053411;28;20179;-69
2022/01/24 05:56:17;;;;;;;0.60;0.60;;;-1.30;95.40;;;;;;5053718;28;20731;-68
2022/01/24 05:58:42;;;;;;;0.50;0.50;;;-1.30;95.40;;;;;;5053095;28;20205;-69
2022/01/24 06:01:08;;;;;;;0.50;0.50;;;-1.30;95.40;;;;;;5053596;28;20412;-71
2022/01/24 06:03:35;;;;;;;0.50;0.50;;;-1.30;95.20;;;;;;5053602;28;20571;-69
2022/01/24 06:06:00;;;;;;;0.40;0.40;;;-1.30;95.30;;;;;;5051450;28;20412;-67
2022/01/24 06:08:26;;;;;;;0.60;0.60;;;-1.30;95.40;;;;;;5052637;28;20228;-68
2022/01/24 06:10:53;;;;;;;0.47;0.47;;;-1.30;95.50;;;;;;5052321;28;20174;-68
2022/01/24 06:13:19;;;;;;;0.40;0.40;;;-1.30;95.50;;;;;;5053271;28;20389;-68
2022/01/24 06:15:45;;;;;;;0.43;0.43;;;-1.20;95.60;;;;;;5052647;28;20249;-68
2022/01/24 06:18:10;;;;;;;0.50;0.50;;;-1.20;95.50;;;;;;5053199;28;20429;-68
2022/01/24 06:20:36;;;;;;;0.57;0.57;;;-1.10;95.60;;;;;;5052955;28;20166;-68
2022/01/24 06:23:02;;;;;;;0.40;0.40;;;-1.10;95.60;;;;;;5052979;28;20252;-68
2022/01/24 06:25:29;;;;;;;0.40;0.40;;;-1.10;95.40;;;;;;5052873;28;20201;-68
2022/01/24 06:27:55;;;;;;;0.63;0.63;;;-1.10;95.30;;;;;;5053011;28;20574;-68
2022/01/24 06:30:21;;;;;;;0.40;0.40;;;-1.10;95.10;;;;;;5052887;28;20198;-69
2022/01/24 06:32:47;;;;;;;0.40;0.40;;;-1.20;95.00;;;;;;5054590;28;20408;-69
2022/01/24 06:35:14;;;;;;;0.40;0.40;;;-1.30;95.10;;;;;;5056969;28;20174;-68
2022/01/24 06:37:40;;;;;;;0.47;0.47;;;-1.30;95.30;;;;;;5054835;28;20193;-68
2022/01/24 06:40:07;;;;;;;0.60;0.60;;;-1.30;95.40;;;;;;5054976;28;20198;-68
2022/01/24 06:42:33;;;;;;;0.50;0.50;;;-1.30;95.20;;;;;;5056336;28;20174;-68
2022/01/24 06:44:59;;;;;;;0.50;0.50;;;-1.30;95.30;;;;;;5056706;28;20220;-68
2022/01/24 06:47:25;;;;;;;0.50;0.50;;;-1.30;95.80;;;;;;5056384;28;20181;-68
2022/01/24 06:49:52;;;;;;;0.60;0.60;;;-1.40;95.40;;;;;;5056238;28;20599;-68
2022/01/24 06:52:18;;;;;;;0.50;0.50;;;-1.50;95.80;;;;;;5056423;28;20308;-69
2022/01/24 06:54:44;;;;;;;0.45;0.45;;;-1.60;96.30;;;;;;5056572;28;20167;-68
2022/01/24 06:57:12;;;;;;;0.70;0.70;;;-1.60;96.70;;;;;;5056300;28;20544;-68
2022/01/24 06:59:38;;;;;;;0.65;0.65;;;-1.40;96.80;;;;;;5056089;28;20462;-68
2022/01/24 07:02:05;;;;;;;0.60;0.60;;;-1.30;96.60;;;;;;5056384;28;20179;-68
2022/01/24 07:04:30;;;;;;;0.50;0.50;;;-1.20;96.40;;;;;;5056350;28;20174;-68
2022/01/24 07:06:56;;;;;;;0.50;0.50;;;-1.10;96.40;;;;;;5056021;28;20197;-68
2022/01/24 07:09:22;;;;;;;0.60;0.60;;;-1.00;96.20;;;;;;5056202;28;20683;-68
2022/01/24 07:11:49;;;;;;;0.40;0.40;;;-1.00;96.00;;;;;;5056284;28;20533;-69
2022/01/24 07:14:15;;;;;;;0.50;0.50;;;-0.90;95.80;;;;;;5056141;28;20245;-68
2022/01/24 07:19:22;;;;;;;0.40;0.40;;;-0.90;94.90;;;;;;5056147;28;20193;-68
2022/01/24 07:21:48;;;;;;;0.50;0.50;;;-0.90;94.60;;;;;;5055797;28;20709;-68
2022/01/24 07:24:13;;;;;;;0.30;0.30;;;-1.00;94.50;;;;;;5055782;28;20253;-68
2022/01/24 07:26:39;;;;;;;0.43;0.43;;;-1.10;94.70;;;;;;5055543;28;20589;-68
2022/01/24 07:29:05;;;;;;;0.40;0.40;;;-1.00;95.10;;;;;;5055598;28;20688;-68
2022/01/24 07:31:30;;;;;;;0.40;0.40;;;-1.00;95.30;;;;;;5055605;28;20175;-68
2022/01/24 07:33:56;;;;;;;0.40;0.40;;;-1.00;95.40;;;;;;5055597;28;20209;-68
2022/01/24 07:36:23;;;;;;;0.40;0.40;;;-1.00;95.30;;;;;;5055760;28;20183;-68
2022/01/24 07:38:48;;;;;;;0.50;0.50;;;-0.90;95.20;;;;;;5055570;28;20202;-68
2022/01/24 07:41:23;;;;;;;0.87;0.87;;;-0.80;95.00;;;;;;5055508;28;20178;-69
2022/01/24 07:43:49;;;;;;;0.40;0.40;;;-0.80;94.60;;;;;;5055576;28;20276;-69
2022/01/24 07:46:15;;;;;;;0.40;0.40;;;-0.80;94.40;;;;;;5055403;28;20174;-70
2022/01/24 07:48:41;;;;;;;0.40;0.40;;;-0.80;94.60;;;;;;5055205;28;20204;-69
2022/01/24 07:51:06;;;;;;;0.30;0.30;;;-0.70;94.80;;;;;;5055343;28;20492;-69
2022/01/24 07:53:32;;;;;;;0.43;0.43;;;-0.70;94.80;;;;;;5055442;28;20170;-69
2022/01/24 07:55:58;;;;;;;0.40;0.40;;;-0.70;94.70;;;;;;5055065;28;20698;-69
2022/01/24 07:58:23;;;;;;;0.50;0.50;;;-0.60;94.80;;;;;;5055039;28;20182;-69
2022/01/24 08:00:49;;;;;;;0.40;0.40;;;-0.50;94.90;;;;;;5055118;28;20174;-69
2022/01/24 08:03:15;;;;;;;0.40;0.40;;;-0.50;94.70;;;;;;5055146;28;20428;-69
2022/01/24 08:05:41;;;;;;;0.40;0.40;;;-0.40;94.50;;;;;;5055237;28;20166;-69
2022/01/24 08:08:07;;;;;;;0.40;0.40;;;-0.30;95.30;;;;;;5054931;28;20205;-69
2022/01/24 08:10:34;;;;;;;0.30;0.30;;;0.50;97.20;;;;;;5055143;28;20174;-70
2022/01/24 08:12:59;;;;;;;0.32;0.32;;;1.80;96.10;;;;;;5055086;28;20175;-70
2022/01/24 08:15:25;;;;;;;0.30;0.30;;;3.00;94.80;;;;;;5055369;28;20180;-70
2022/01/24 08:17:51;;;;;;;0.30;0.30;;;3.90;90.80;;;;;;5054959;28;20185;-69
2022/01/24 08:20:17;;;;;;;0.40;0.40;;;4.60;86.10;;;;;;5054778;28;20411;-70
2022/01/24 08:22:43;;;;;;;0.40;0.40;;;5.40;82.40;;;;;;5054832;28;20200;-70
2022/01/24 08:25:10;;;;;;;0.40;0.40;;;5.80;77.10;;;;;;5054814;28;20533;-70
2022/01/24 08:27:36;;;;;;;0.40;0.40;;;6.20;74.20;;;;;;5054417;28;20173;-70
2022/01/24 08:30:09;;;;;;;0.40;0.40;;;7.20;70.70;;;;;;5054435;28;20202;-70
2022/01/24 08:32:35;;;;;;;0.50;0.50;;;7.90;65.80;;;;;;5054464;28;20167;-70
2022/01/24 08:35:00;;;;;;;0.30;0.30;;;8.70;62.40;;;;;;5054567;28;20216;-70
2022/01/24 08:37:27;;;;;;;0.40;0.40;;;9.30;59.70;;;;;;5054421;28;20473;-70
2022/01/24 08:39:52;;;;;;;0.32;0.32;;;9.50;57.90;;;;;;5054319;28;20249;-70
2022/01/24 08:42:27;;;;;;;0.40;0.40;;;9.90;56.60;;;;;;5054210;28;20591;-70
2022/01/24 08:47:29;;;;;;;0.30;0.30;;;9.70;55.60;;;;;;5054151;28;20187;-70
2022/01/24 08:49:55;;;;;;;0.30;0.30;;;9.90;54.90;;;;;;5054064;28;20300;-70
2022/01/24 08:52:22;;;;;;;1.40;1.30;;;10.00;53.10;;;;;;5054332;28;20184;-70
2022/01/24 08:54:48;;;;;;;0.32;0.32;;;9.90;53.70;;;;;;5053803;28;20174;-70
2022/01/24 08:57:14;;;;;;;0.30;0.30;;;10.00;53.00;;;;;;5053886;28;20558;-70
2022/01/24 08:59:41;;;;;;;1.37;1.13;;;9.90;53.90;;;;;;5053855;28;20287;-70
2022/01/24 09:02:07;;;;;;;0.30;0.30;;;9.50;55.00;;;;;;5054101;28;20578;-70
2022/01/24 09:04:33;;;;;;;0.30;0.30;;;10.00;53.20;;;;;;5054158;28;20217;-69
2022/01/24 09:07:03;;;;;;;0.30;0.30;;;10.30;52.30;;;;;;5053681;28;20660;-70
2022/01/24 09:09:30;;;;;;;0.40;0.40;;;10.70;51.30;;;;;;5053758;28;20236;-70
2022/01/24 09:11:56;;;;;;;0.30;0.30;;;11.60;51.20;;;;;;5053873;28;20173;-70
2022/01/24 09:14:23;;;;;;;0.40;0.40;;;12.20;50.40;;;;;;5053874;28;20529;-70
2022/01/24 09:16:49;;;;;;;0.30;0.30;;;12.80;49.30;;;;;;5053538;28;20397;-70
2022/01/24 09:19:14;;;;;;;0.93;0.93;;;13.10;48.50;;;;;;5054214;28;20548;-70
2022/01/24 09:21:40;;;;;;;0.30;0.30;;;13.60;47.40;;;;;;5053603;28;20170;-70
2022/01/24 09:24:06;;;;;;;0.40;0.40;;;14.30;45.80;;;;;;5053589;28;20642;-70
2022/01/24 09:26:33;;;;;;;0.63;0.60;;;14.90;44.80;;;;;;5053481;28;20178;-70
2022/01/24 09:28:58;;;;;;;0.30;0.30;;;15.60;43.00;;;;;;5053383;28;20462;-70
2022/01/24 09:31:24;;;;;;;0.40;0.40;;;16.10;41.80;;;;;;5053881;28;20405;-70
2022/01/24 09:33:52;;;;;;;0.47;0.47;;;16.70;40.20;;;;;;5053594;28;20269;-70
2022/01/24 09:36:18;;;;;;;0.30;0.30;;;16.40;39.80;;;;;;5053310;28;20230;-70
2022/01/24 09:38:44;;;;;;;0.30;0.30;;;16.70;40.00;;;;;;5053697;28;20424;-70
2022/01/24 09:41:15;;;;;;;0.50;0.50;;;17.10;38.50;;;;;;5053441;28;20827;-70
2022/01/24 09:43:43;;;;;;;0.30;0.30;;;16.80;38.30;;;;;;5053668;28;20215;-70
2022/01/24 09:46:09;;;;;;;0.40;0.40;;;16.70;38.70;;;;;;5053214;28;20405;-70
2022/01/24 09:48:38;;;;;;;0.50;0.50;;;17.00;38.30;;;;;;5053341;28;20502;-70
2022/01/24 09:51:05;;;;;;;0.30;0.30;;;16.70;38.50;;;;;;5053247;28;20409;-70
2022/01/24 09:53:33;;;;;;;0.40;0.40;;;16.60;39.10;;;;;;5053295;28;20404;-70
2022/01/24 09:56:03;;;;;;;0.50;0.50;;;16.80;38.30;;;;;;5051938;28;20466;-70
2022/01/24 09:58:29;;;;;;;0.30;0.30;;;17.40;37.70;;;;;;5053209;28;20428;-68
2022/01/24 10:00:55;;;;;;;0.30;0.30;;;17.60;37.80;;;;;;5053291;28;20390;-68
2022/01/24 10:03:24;;;;;;;0.40;0.40;;;18.10;37.00;;;;;;5053304;28;20412;-68
2022/01/24 10:05:56;;;;;;;0.30;0.30;;;18.50;36.40;;;;;;5053206;28;20407;-68
2022/01/24 10:08:24;;;;;;;0.40;0.40;;;18.60;35.90;;;;;;5056639;28;20462;-68
2022/01/24 10:10:58;;;;;;;0.50;0.50;;;18.40;36.40;;;;;;5057215;28;20469;-68
2022/01/24 10:16:30;;;;;;;0.30;0.30;;;18.30;37.20;;;;;;5057130;28;20383;-68
2022/01/24 10:19:20;;;;;;;2.53;1.90;;;17.90;37.50;;;;;;5057108;28;20432;-68
2022/01/24 10:22:05;;;;;;;0.30;0.30;;;17.80;37.80;;;;;;5055746;28;20400;-68
2022/01/24 10:24:43;;;;;;;0.30;0.30;;;17.70;37.50;;;;;;5057620;28;20408;-68
2022/01/24 10:27:18;;;;;;;0.30;0.30;;;17.80;37.30;;;;;;5056867;28;20414;-68
2022/01/24 10:29:51;;;;;;;0.30;0.30;;;17.70;38.70;;;;;;5056862;28;20455;-68
2022/01/24 10:32:51;;;;;;;0.40;0.40;;;17.90;38.70;;;;;;5057009;28;20923;-68
2022/01/24 10:35:46;;;;;;;0.30;0.30;;;18.10;37.60;;;;;;5057152;28;20405;-68
2022/01/24 10:38:52;;;;;;;0.30;0.30;;;18.60;37.60;;;;;;5056869;28;20428;-68
2022/01/24 10:41:21;;;;;;;0.83;0.83;;;18.20;38.40;;;;;;5056633;28;20521;-68
2022/01/24 10:43:52;;;;;;;0.30;0.30;;;17.80;38.30;;;;;;5056822;28;20388;-68
2022/01/24 10:46:27;;;;;;;0.30;0.30;;;17.60;38.50;;;;;;5056564;28;20816;-68
2022/01/24 10:49:07;;;;;;;0.50;0.50;;;17.20;39.60;;;;;;5056337;28;20451;-68
2022/01/24 10:51:40;;;;;;;0.30;0.30;;;17.10;39.00;;;;;;5056650;28;20411;-68
2022/01/24 10:54:06;;;;;;;0.30;0.30;;;17.50;39.00;;;;;;5056646;28;20408;-68
2022/01/24 10:56:41;;;;;;;0.30;0.30;;;17.20;40.40;;;;;;5056233;28;20757;-68
2022/01/24 10:59:10;;;;;;;0.30;0.30;;;17.10;40.70;;;;;;5055749;28;20444;-68
2022/01/24 11:01:35;;;;;;;0.30;0.30;;;16.80;40.70;;;;;;5055029;28;20400;-68
2022/01/24 11:04:05;;;;;;;0.30;0.30;;;16.90;40.40;;;;;;5055179;28;20468;-68
2022/01/24 11:06:34;;;;;;;0.37;0.37;;;16.80;40.20;;;;;;5054828;28;20264;-68
2022/01/24 11:09:23;;;;;;;0.37;0.37;;;16.30;41.00;;;;;;5054773;28;20813;-68
2022/01/24 11:11:54;;;;;;;0.30;0.30;;;15.80;42.60;;;;;;5055113;28;20402;-68
2022/01/24 11:14:21;;;;;;;0.30;0.30;;;15.10;43.20;;;;;;5055033;28;20436;-68
2022/01/24 11:16:51;;;;;;;0.40;0.40;;;14.70;44.40;;;;;;5054649;28;20409;-68
2022/01/24 11:19:33;;;;;;;0.30;0.30;;;14.20;45.10;;;;;;5054492;28;20417;-68
2022/01/24 11:22:04;;;;;;;0.30;0.30;;;13.70;45.60;;;;;;5054830;28;20407;-68
2022/01/24 11:24:44;;;;;;;0.30;0.30;;;13.10;46.60;;;;;;5054770;28;20436;-68
2022/01/24 11:27:10;;;;;;;0.30;0.30;;;12.80;46.90;;;;;;5054494;28;20404;-68
2022/01/24 11:29:37;;;;;;;0.30;0.30;;;12.10;48.60;;;;;;5054619;28;20551;-68
2022/01/24 11:32:31;;;;;;;0.60;0.60;;;12.00;48.80;;;;;;5054781;28;20503;-68
2022/01/24 11:34:58;;;;;;;0.30;0.30;;;12.00;48.80;;;;;;5054718;28;20590;-68
2022/01/24 11:37:46;;;;;;;2.25;2.15;;;12.10;49.10;;;;;;5054309;28;20585;-68
2022/01/24 11:40:20;;;;;;;0.30;0.30;;;12.00;49.40;;;;;;5054474;28;20190;-68
2022/01/24 11:42:47;;;;;;;0.50;0.50;;;12.00;49.40;;;;;;5054685;28;20174;-68
2022/01/24 11:45:18;;;;;;;0.30;0.30;;;12.20;50.00;;;;;;5054345;28;20252;-68
2022/01/24 11:47:46;;;;;;;0.52;0.52;;;12.30;50.20;;;;;;5054337;28;20162;-68
2022/01/24 11:50:24;;;;;;;0.30;0.30;;;12.10;49.50;;;;;;5054151;28;20238;-68
2022/01/24 11:52:50;;;;;;;0.35;0.35;;;12.10;49.90;;;;;;5054342;28;20200;-68
2022/01/24 11:55:31;;;;;;;0.30;0.30;;;11.60;46.00;;;;;;5054255;28;20251;-68
2022/01/24 11:58:00;;;;;;;0.30;0.30;;;11.70;47.10;;;;;;5054445;28;20638;-69
2022/01/24 12:00:29;;;;;;;0.30;0.30;;;12.00;46.00;;;;;;5009521;28;1299132;-69
2022/01/24 12:03:02;;;;;;;0.30;0.30;;;12.10;41.50;;;;;;5055119;28;20167;-69
2022/01/24 12:05:41;;;;;;;0.40;0.40;;;12.30;40.30;;;;;;5054676;28;20209;-69
2022/01/24 12:08:10;;;;;;;0.30;0.30;;;12.30;39.70;;;;;;5055245;28;20411;-69
2022/01/24 12:10:42;;;;;;;0.40;0.40;;;12.20;42.80;;;;;;5054847;28;20475;-69
2022/01/24 12:13:22;;;;;;;0.30;0.30;;;12.20;41.20;;;;;;5054936;28;20408;-69
2022/01/24 12:15:48;;;;;;;0.40;0.40;;;12.50;40.80;;;;;;5055084;28;20397;-69
2022/01/24 12:18:21;;;;;;;0.30;0.30;;;12.60;43.50;;;;;;5054885;28;20431;-70
2022/01/24 12:20:48;;;;;;;0.40;0.40;;;12.60;40.60;;;;;;5054861;28;20154;-69
2022/01/24 12:23:18;;;;;;;0.30;0.30;;;12.20;39.70;;;;;;5054896;28;20515;-69
2022/01/24 12:26:03;;;;;;;0.30;0.30;;;11.70;43.60;;;;;;5054548;28;20404;-70
2022/01/24 12:28:31;;;;;;;0.30;0.30;;;11.20;40.20;;;;;;5054779;28;20640;-69
2022/01/24 12:31:02;;;;;;;0.30;0.30;;;11.00;41.20;;;;;;5054002;28;20228;-70
2022/01/24 12:33:44;;;;;;;0.30;0.30;;;10.80;40.90;;;;;;5054749;28;20578;-69
2022/01/24 12:36:15;;;;;;;0.30;0.30;;;10.70;44.50;;;;;;5054314;28;20181;-70
2022/01/24 12:38:49;;;;;;;3.10;0.90;;;10.40;43.00;;;;;;5054635;28;20585;-69
2022/01/24 12:41:23;;;;;;;0.30;0.30;;;10.10;42.40;;;;;;5054470;28;20527;-70
2022/01/24 12:43:58;;;;;;;0.30;0.30;;;10.10;44.70;;;;;;5054544;28;20530;-69
2022/01/24 12:46:26;;;;;;;0.30;0.30;;;9.90;43.70;;;;;;5054637;28;20178;-69
2022/01/24 12:48:55;;;;;;;0.30;0.30;;;9.80;50.80;;;;;;5054122;28;20693;-69
2022/01/24 12:51:22;;;;;;;0.30;0.30;;;9.70;51.90;;;;;;5053693;28;20174;-69
2022/01/24 12:53:49;;;;;;;0.30;0.30;;;9.60;50.80;;;;;;5053624;28;20186;-69
2022/01/24 12:56:18;;;;;;;0.30;0.30;;;9.50;50.10;;;;;;5053071;28;20177;-69
2022/01/24 12:58:46;;;;;;;0.30;0.30;;;9.40;51.30;;;;;;5053949;28;20211;-69
2022/01/24 13:01:32;;;;;;;0.38;0.38;;;9.20;51.60;;;;;;5054268;28;20174;-69
2022/01/24 13:04:08;;;;;;;0.30;0.30;;;9.10;53.10;;;;;;5054107;28;20170;-69
2022/01/24 13:06:37;;;;;;;0.30;0.30;;;8.90;52.90;;;;;;5053812;28;20530;-69
2022/01/24 13:09:12;;;;;;;0.30;0.30;;;8.70;53.40;;;;;;5053698;28;20324;-69
2022/01/24 13:11:49;;;;;;;0.30;0.30;;;8.30;52.90;;;;;;5053919;28;20188;-69
2022/01/24 13:22:33;;;;;;;0.30;0.30;;;8.70;50.50;;;;;;5053966;28;20220;-69
2022/01/24 13:25:26;;;;;;;0.30;0.30;;;8.70;50.60;;;;;;5053703;28;20215;-69
2022/01/24 13:28:06;;;;;;;0.38;0.38;;;8.60;50.30;;;;;;5053208;28;20181;-69
2022/01/24 13:30:33;;;;;;;0.30;0.30;;;8.60;48.50;;;;;;5053505;28;20201;-69
2022/01/24 13:33:04;;;;;;;0.35;0.35;;;8.70;48.30;;;;;;5053653;28;20192;-69
2022/01/24 13:35:37;;;;;;;0.30;0.30;;;8.80;49.70;;;;;;5053506;28;20212;-69
2022/01/24 13:38:15;;;;;;;0.30;0.30;;;8.90;47.80;;;;;;5052367;28;20185;-69
2022/01/24 13:41:00;;;;;;;0.30;0.30;;;9.00;46.80;;;;;;5053605;28;20543;-69
2022/01/24 13:43:36;;;;;;;0.30;0.30;;;9.00;46.10;;;;;;5053682;28;20236;-69
2022/01/24 13:46:04;;;;;;;0.32;0.32;;;9.10;45.40;;;;;;5053314;28;20268;-69
2022/01/24 13:48:38;;;;;;;0.40;0.40;;;9.20;47.40;;;;;;5053270;28;20647;-69
2022/01/24 13:51:04;;;;;;;0.30;0.30;;;9.20;47.50;;;;;;5053436;28;20182;-69
2022/01/24 13:53:36;;;;;;;0.32;0.32;;;9.30;46.00;;;;;;5053362;28;20205;-69
2022/01/24 13:56:17;;;;;;;0.30;0.30;;;9.20;47.70;;;;;;5053160;28;20162;-69
2022/01/24 13:58:55;;;;;;;0.30;0.30;;;9.20;47.50;;;;;;5053329;28;20638;-69
2022/01/24 14:01:21;;;;;;;0.30;0.30;;;9.10;47.60;;;;;;5053248;28;20707;-69
2022/01/24 14:03:58;;;;;;;0.30;0.30;;;9.10;47.50;;;;;;5053283;28;20209;-72
2022/01/24 14:06:24;;;;;;;0.30;0.30;;;8.80;46.60;;;;;;5052990;28;20174;-68
2022/01/24 14:09:04;;;;;;;0.30;0.30;;;8.70;46.70;;;;;;5053020;28;20545;-70
2022/01/24 14:11:30;;;;;;;0.40;0.40;;;8.70;47.50;;;;;;5053134;28;20165;-69
2022/01/24 14:14:06;;;;;;;0.30;0.30;;;8.60;47.00;;;;;;5053356;28;20223;-69
2022/01/24 14:17:07;;;;;;;0.38;0.38;;;8.80;46.70;;;;;;5052965;28;20166;-69
2022/01/24 14:19:35;;;;;;;0.30;0.30;;;9.00;46.60;;;;;;5052854;28;20205;-69
2022/01/24 14:22:10;;;;;;;0.35;0.35;;;8.80;47.70;;;;;;5053018;28;20249;-69
2022/01/24 14:24:48;;;;;;;0.40;0.40;;;8.60;47.40;;;;;;5053039;28;20170;-69
2022/01/24 14:27:40;;;;;;;0.40;0.40;;;8.80;49.00;;;;;;5052931;28;20627;-69
2022/01/24 14:30:11;;;;;;;0.30;0.30;;;8.90;48.00;;;;;;5052844;28;20236;-69
2022/01/24 14:32:39;;;;;;;0.30;0.30;;;8.80;46.90;;;;;;5053196;28;20204;-69
2022/01/24 14:35:08;;;;;;;0.30;0.30;;;9.00;47.00;;;;;;5052886;28;20189;-69
2022/01/24 14:37:52;;;;;;;0.30;0.30;;;9.00;47.60;;;;;;5052713;28;20208;-69
2022/01/24 14:40:49;;;;;;;0.40;0.40;;;9.10;49.20;;;;;;5052764;28;20234;-69
2022/01/24 14:46:19;;;;;;;0.38;0.38;;;8.80;52.00;;;;;;5052706;28;20191;-69
2022/01/24 14:48:47;;;;;;;0.30;0.30;;;8.60;53.10;;;;;;5052872;28;20223;-69
2022/01/24 14:51:13;;;;;;;0.30;0.30;;;8.50;53.40;;;;;;5052625;28;20200;-69
2022/01/24 14:53:39;;;;;;;0.40;0.40;;;8.30;52.10;;;;;;5055028;28;20211;-69
2022/01/24 14:56:05;;;;;;;0.30;0.30;;;8.20;53.60;;;;;;5056279;28;20169;-69